sensor_id;sensor_type;location;lat;lon;timestamp;temperature;humidity
80254;DHT22;69563;37.974;23.708;2023-09-18T00:00:03;27.20;41.50
80254;DHT22;69563;37.974;23.708;2023-09-18T00:02:38;27.20;41.50
80254;DHT22;69563;37.974;23.708;2023-09-18T00:05:04;27.20;41.50
80254;DHT22;69563;37.974;23.708;2023-09-18T00:07:30;27.20;41.50
80254;DHT22;69563;37.974;23.708;2023-09-18T00:09:55;27.20;41.60
80254;DHT22;69563;37.974;23.708;2023-09-18T00:12:21;27.20;41.60
80254;DHT22;69563;37.974;23.708;2023-09-18T00:14:50;27.20;41.60
80254;DHT22;69563;37.974;23.708;2023-09-18T00:17:16;27.20;41.60
80254;DHT22;69563;37.974;23.708;2023-09-18T00:19:43;27.20;41.60
80254;DHT22;69563;37.974;23.708;2023-09-18T00:22:08;27.20;41.60
80254;DHT22;69563;37.974;23.708;2023-09-18T00:24:34;27.20;41.60
80254;DHT22;69563;37.974;23.708;2023-09-18T00:27:00;27.20;41.60
80254;DHT22;69563;37.974;23.708;2023-09-18T00:29:26;27.20;41.60
80254;DHT22;69563;37.974;23.708;2023-09-18T00:31:51;27.20;41.60
80254;DHT22;69563;37.974;23.708;2023-09-18T00:34:17;27.20;41.70
80254;DHT22;69563;37.974;23.708;2023-09-18T00:36:43;27.20;41.70
80254;DHT22;69563;37.974;23.708;2023-09-18T00:39:09;27.20;41.70
80254;DHT22;69563;37.974;23.708;2023-09-18T00:41:36;27.20;41.70
80254;DHT22;69563;37.974;23.708;2023-09-18T00:44:02;27.20;42.70
80254;DHT22;69563;37.974;23.708;2023-09-18T00:46:28;27.20;41.80
80254;DHT22;69563;37.974;23.708;2023-09-18T00:48:54;27.20;41.80
80254;DHT22;69563;37.974;23.708;2023-09-18T00:51:20;27.20;41.80
80254;DHT22;69563;37.974;23.708;2023-09-18T00:53:47;27.20;41.80
80254;DHT22;69563;37.974;23.708;2023-09-18T00:56:14;27.20;41.80
80254;DHT22;69563;37.974;23.708;2023-09-18T00:58:40;27.20;41.80
80254;DHT22;69563;37.974;23.708;2023-09-18T01:01:06;27.20;41.80
80254;DHT22;69563;37.974;23.708;2023-09-18T01:03:34;27.10;41.80
80254;DHT22;69563;37.974;23.708;2023-09-18T01:06:00;27.20;41.90
80254;DHT22;69563;37.974;23.708;2023-09-18T01:08:25;27.20;41.90
80254;DHT22;69563;37.974;23.708;2023-09-18T01:11:25;27.20;41.90
80254;DHT22;69563;37.974;23.708;2023-09-18T01:14:09;27.10;41.90
80254;DHT22;69563;37.974;23.708;2023-09-18T01:16:53;27.10;42.00
80254;DHT22;69563;37.974;23.708;2023-09-18T01:22:04;27.10;42.10
80254;DHT22;69563;37.974;23.708;2023-09-18T01:24:32;27.10;42.10
80254;DHT22;69563;37.974;23.708;2023-09-18T01:26:58;27.10;42.20
80254;DHT22;69563;37.974;23.708;2023-09-18T01:29:23;27.10;42.20
80254;DHT22;69563;37.974;23.708;2023-09-18T01:31:49;27.10;42.20
80254;DHT22;69563;37.974;23.708;2023-09-18T01:34:19;27.00;42.10
80254;DHT22;69563;37.974;23.708;2023-09-18T01:36:47;27.10;42.30
80254;DHT22;69563;37.974;23.708;2023-09-18T01:39:14;27.00;42.20
80254;DHT22;69563;37.974;23.708;2023-09-18T01:41:41;27.00;42.20
80254;DHT22;69563;37.974;23.708;2023-09-18T01:44:07;27.10;42.30
80254;DHT22;69563;37.974;23.708;2023-09-18T01:46:33;27.00;42.20
80254;DHT22;69563;37.974;23.708;2023-09-18T01:49:05;27.00;42.20
80254;DHT22;69563;37.974;23.708;2023-09-18T01:51:31;27.00;42.20
80254;DHT22;69563;37.974;23.708;2023-09-18T01:53:57;27.00;42.20
80254;DHT22;69563;37.974;23.708;2023-09-18T01:56:23;27.10;42.30
80254;DHT22;69563;37.974;23.708;2023-09-18T01:58:49;27.00;42.20
80254;DHT22;69563;37.974;23.708;2023-09-18T02:01:15;27.00;42.20
80254;DHT22;69563;37.974;23.708;2023-09-18T02:03:41;27.00;42.20
80254;DHT22;69563;37.974;23.708;2023-09-18T02:06:07;27.00;42.20
80254;DHT22;69563;37.974;23.708;2023-09-18T02:08:34;27.00;42.20
80254;DHT22;69563;37.974;23.708;2023-09-18T02:11:00;27.00;42.20
80254;DHT22;69563;37.974;23.708;2023-09-18T02:13:26;27.00;42.20
80254;DHT22;69563;37.974;23.708;2023-09-18T02:15:52;27.00;42.30
80254;DHT22;69563;37.974;23.708;2023-09-18T02:18:18;27.00;42.20
80254;DHT22;69563;37.974;23.708;2023-09-18T02:20:44;27.00;42.20
80254;DHT22;69563;37.974;23.708;2023-09-18T02:23:13;27.00;42.20
80254;DHT22;69563;37.974;23.708;2023-09-18T02:25:39;27.00;42.30
80254;DHT22;69563;37.974;23.708;2023-09-18T02:28:06;27.00;42.20
80254;DHT22;69563;37.974;23.708;2023-09-18T02:30:32;26.90;42.20
80254;DHT22;69563;37.974;23.708;2023-09-18T02:32:58;27.00;42.30
80254;DHT22;69563;37.974;23.708;2023-09-18T02:35:25;27.00;42.30
80254;DHT22;69563;37.974;23.708;2023-09-18T02:37:51;26.90;42.20
80254;DHT22;69563;37.974;23.708;2023-09-18T02:40:17;27.00;42.40
80254;DHT22;69563;37.974;23.708;2023-09-18T02:42:43;26.90;42.20
80254;DHT22;69563;37.974;23.708;2023-09-18T02:45:09;27.00;42.30
80254;DHT22;69563;37.974;23.708;2023-09-18T02:47:35;26.90;42.30
80254;DHT22;69563;37.974;23.708;2023-09-18T02:50:04;26.90;42.30
80254;DHT22;69563;37.974;23.708;2023-09-18T02:52:30;26.90;42.30
80254;DHT22;69563;37.974;23.708;2023-09-18T02:54:56;26.90;42.30
80254;DHT22;69563;37.974;23.708;2023-09-18T02:57:22;26.90;42.30
80254;DHT22;69563;37.974;23.708;2023-09-18T02:59:48;26.90;42.40
80254;DHT22;69563;37.974;23.708;2023-09-18T03:02:14;26.90;42.40
80254;DHT22;69563;37.974;23.708;2023-09-18T03:04:40;26.90;42.40
80254;DHT22;69563;37.974;23.708;2023-09-18T03:07:05;26.90;42.40
80254;DHT22;69563;37.974;23.708;2023-09-18T03:09:31;26.90;42.40
80254;DHT22;69563;37.974;23.708;2023-09-18T03:11:57;26.90;42.40
80254;DHT22;69563;37.974;23.708;2023-09-18T03:14:22;26.90;42.50
80254;DHT22;69563;37.974;23.708;2023-09-18T03:16:48;26.90;42.50
80254;DHT22;69563;37.974;23.708;2023-09-18T03:19:14;26.90;42.50
80254;DHT22;69563;37.974;23.708;2023-09-18T03:21:39;26.90;42.60
80254;DHT22;69563;37.974;23.708;2023-09-18T03:24:06;26.90;42.60
80254;DHT22;69563;37.974;23.708;2023-09-18T03:26:31;26.90;42.60
80254;DHT22;69563;37.974;23.708;2023-09-18T03:28:57;26.90;42.60
80254;DHT22;69563;37.974;23.708;2023-09-18T03:31:23;26.90;42.60
80254;DHT22;69563;37.974;23.708;2023-09-18T03:33:48;26.80;42.50
80254;DHT22;69563;37.974;23.708;2023-09-18T03:36:14;26.90;42.60
80254;DHT22;69563;37.974;23.708;2023-09-18T03:38:40;26.90;42.60
80254;DHT22;69563;37.974;23.708;2023-09-18T03:41:06;26.80;42.60
80254;DHT22;69563;37.974;23.708;2023-09-18T03:43:31;26.80;42.60
80254;DHT22;69563;37.974;23.708;2023-09-18T03:46:06;26.80;42.60
80254;DHT22;69563;37.974;23.708;2023-09-18T03:48:33;26.80;42.60
80254;DHT22;69563;37.974;23.708;2023-09-18T03:51:05;26.80;42.60
80254;DHT22;69563;37.974;23.708;2023-09-18T03:53:34;26.80;42.60
80254;DHT22;69563;37.974;23.708;2023-09-18T03:56:00;26.80;42.60
80254;DHT22;69563;37.974;23.708;2023-09-18T03:58:26;26.80;42.60
80254;DHT22;69563;37.974;23.708;2023-09-18T04:00:52;26.80;42.60
80254;DHT22;69563;37.974;23.708;2023-09-18T04:03:18;26.80;42.60
80254;DHT22;69563;37.974;23.708;2023-09-18T04:05:44;26.80;42.60
80254;DHT22;69563;37.974;23.708;2023-09-18T04:08:10;26.80;42.60
80254;DHT22;69563;37.974;23.708;2023-09-18T04:10:37;26.80;42.60
80254;DHT22;69563;37.974;23.708;2023-09-18T04:13:02;26.80;42.60
80254;DHT22;69563;37.974;23.708;2023-09-18T04:15:29;26.80;43.70
80254;DHT22;69563;37.974;23.708;2023-09-18T04:17:56;26.80;42.60
80254;DHT22;69563;37.974;23.708;2023-09-18T04:20:22;26.80;42.60
80254;DHT22;69563;37.974;23.708;2023-09-18T04:23:21;26.80;42.70
80254;DHT22;69563;37.974;23.708;2023-09-18T04:25:47;26.80;42.60
80254;DHT22;69563;37.974;23.708;2023-09-18T04:28:15;26.80;42.60
80254;DHT22;69563;37.974;23.708;2023-09-18T04:30:41;26.80;42.60
80254;DHT22;69563;37.974;23.708;2023-09-18T04:33:06;26.80;42.70
80254;DHT22;69563;37.974;23.708;2023-09-18T04:35:32;26.80;42.60
80254;DHT22;69563;37.974;23.708;2023-09-18T04:37:59;26.80;42.60
80254;DHT22;69563;37.974;23.708;2023-09-18T04:40:25;26.80;42.70
80254;DHT22;69563;37.974;23.708;2023-09-18T04:42:52;26.80;42.60
80254;DHT22;69563;37.974;23.708;2023-09-18T04:45:18;26.80;42.60
80254;DHT22;69563;37.974;23.708;2023-09-18T04:47:44;26.80;42.60
80254;DHT22;69563;37.974;23.708;2023-09-18T04:50:10;26.80;42.60
80254;DHT22;69563;37.974;23.708;2023-09-18T04:52:38;26.90;42.70
80254;DHT22;69563;37.974;23.708;2023-09-18T04:55:06;26.90;42.80
80254;DHT22;69563;37.974;23.708;2023-09-18T04:57:32;26.90;43.00
80254;DHT22;69563;37.974;23.708;2023-09-18T04:59:58;26.90;43.20
80254;DHT22;69563;37.974;23.708;2023-09-18T05:02:23;26.90;43.50
80254;DHT22;69563;37.974;23.708;2023-09-18T05:04:51;26.90;43.80
80254;DHT22;69563;37.974;23.708;2023-09-18T05:07:17;27.00;44.00
80254;DHT22;69563;37.974;23.708;2023-09-18T05:09:43;27.00;44.20
80254;DHT22;69563;37.974;23.708;2023-09-18T05:12:09;27.10;44.30
80254;DHT22;69563;37.974;23.708;2023-09-18T05:14:40;27.10;44.40
80254;DHT22;69563;37.974;23.708;2023-09-18T05:17:06;27.20;44.50
80254;DHT22;69563;37.974;23.708;2023-09-18T05:19:32;27.20;44.50
80254;DHT22;69563;37.974;23.708;2023-09-18T05:21:57;27.30;44.50
80254;DHT22;69563;37.974;23.708;2023-09-18T05:24:23;27.30;44.50
80254;DHT22;69563;37.974;23.708;2023-09-18T05:26:53;27.40;44.60
80254;DHT22;69563;37.974;23.708;2023-09-18T05:29:19;27.40;44.50
80254;DHT22;69563;37.974;23.708;2023-09-18T05:31:45;27.40;44.50
80254;DHT22;69563;37.974;23.708;2023-09-18T05:34:12;27.50;44.50
80254;DHT22;69563;37.974;23.708;2023-09-18T05:36:38;27.50;44.40
80254;DHT22;69563;37.974;23.708;2023-09-18T05:39:04;27.60;44.50
80254;DHT22;69563;37.974;23.708;2023-09-18T05:41:30;27.60;44.30
80254;DHT22;69563;37.974;23.708;2023-09-18T05:43:56;27.70;44.40
80254;DHT22;69563;37.974;23.708;2023-09-18T05:46:22;27.70;44.20
80254;DHT22;69563;37.974;23.708;2023-09-18T05:48:48;27.70;44.10
80254;DHT22;69563;37.974;23.708;2023-09-18T05:51:14;27.80;44.10
80254;DHT22;69563;37.974;23.708;2023-09-18T05:53:39;27.90;44.00
80254;DHT22;69563;37.974;23.708;2023-09-18T05:56:05;27.90;43.90
80254;DHT22;69563;37.974;23.708;2023-09-18T05:58:32;28.00;43.80
80254;DHT22;69563;37.974;23.708;2023-09-18T06:01:01;28.00;43.70
80254;DHT22;69563;37.974;23.708;2023-09-18T06:03:27;28.10;43.60
80254;DHT22;69563;37.974;23.708;2023-09-18T06:05:56;28.10;43.60
80254;DHT22;69563;37.974;23.708;2023-09-18T06:08:21;28.20;43.50
80254;DHT22;69563;37.974;23.708;2023-09-18T06:10:49;28.20;43.30
80254;DHT22;69563;37.974;23.708;2023-09-18T06:13:14;28.30;43.20
80254;DHT22;69563;37.974;23.708;2023-09-18T06:15:40;28.30;43.20
80254;DHT22;69563;37.974;23.708;2023-09-18T06:18:06;28.40;43.00
80254;DHT22;69563;37.974;23.708;2023-09-18T06:20:32;28.40;42.90
80254;DHT22;69563;37.974;23.708;2023-09-18T06:22:57;28.40;42.80
80254;DHT22;69563;37.974;23.708;2023-09-18T06:25:23;28.50;42.70
80254;DHT22;69563;37.974;23.708;2023-09-18T06:27:50;28.50;42.50
80254;DHT22;69563;37.974;23.708;2023-09-18T06:30:15;28.50;42.30
80254;DHT22;69563;37.974;23.708;2023-09-18T06:32:41;28.50;42.20
80254;DHT22;69563;37.974;23.708;2023-09-18T06:35:08;28.50;42.10
80254;DHT22;69563;37.974;23.708;2023-09-18T06:37:34;28.50;42.00
80254;DHT22;69563;37.974;23.708;2023-09-18T06:40:00;28.50;42.10
80254;DHT22;69563;37.974;23.708;2023-09-18T06:42:29;28.40;42.20
80254;DHT22;69563;37.974;23.708;2023-09-18T06:44:54;28.40;42.30
80254;DHT22;69563;37.974;23.708;2023-09-18T06:47:21;28.30;42.10
80254;DHT22;69563;37.974;23.708;2023-09-18T06:49:49;28.30;42.40
80254;DHT22;69563;37.974;23.708;2023-09-18T06:52:15;28.30;42.60
80254;DHT22;69563;37.974;23.708;2023-09-18T06:54:42;28.20;42.60
80254;DHT22;69563;37.974;23.708;2023-09-18T06:57:09;28.20;42.60
80254;DHT22;69563;37.974;23.708;2023-09-18T06:59:35;28.20;42.80
80254;DHT22;69563;37.974;23.708;2023-09-18T07:02:01;28.20;42.80
80254;DHT22;69563;37.974;23.708;2023-09-18T07:04:27;28.20;43.00
80254;DHT22;69563;37.974;23.708;2023-09-18T07:06:53;28.20;43.00
80254;DHT22;69563;37.974;23.708;2023-09-18T07:09:19;28.20;42.80
80254;DHT22;69563;37.974;23.708;2023-09-18T07:11:48;28.30;42.60
80254;DHT22;69563;37.974;23.708;2023-09-18T07:14:18;28.30;42.40
80254;DHT22;69563;37.974;23.708;2023-09-18T07:16:46;28.30;42.40
80254;DHT22;69563;37.974;23.708;2023-09-18T07:19:12;28.40;42.30
80254;DHT22;69563;37.974;23.708;2023-09-18T07:21:42;28.30;42.30
80254;DHT22;69563;37.974;23.708;2023-09-18T07:24:08;28.30;42.30
80254;DHT22;69563;37.974;23.708;2023-09-18T07:26:35;28.30;42.20
80254;DHT22;69563;37.974;23.708;2023-09-18T07:29:01;28.40;42.20
80254;DHT22;69563;37.974;23.708;2023-09-18T07:31:27;28.40;42.20
80254;DHT22;69563;37.974;23.708;2023-09-18T07:33:53;28.40;42.20
80254;DHT22;69563;37.974;23.708;2023-09-18T07:36:18;28.40;42.10
80254;DHT22;69563;37.974;23.708;2023-09-18T07:38:45;28.40;42.10
80254;DHT22;69563;37.974;23.708;2023-09-18T07:41:11;28.40;42.10
80254;DHT22;69563;37.974;23.708;2023-09-18T07:43:37;28.40;42.10
80254;DHT22;69563;37.974;23.708;2023-09-18T07:46:04;28.50;42.20
80254;DHT22;69563;37.974;23.708;2023-09-18T07:48:30;28.50;42.10
80254;DHT22;69563;37.974;23.708;2023-09-18T07:50:56;28.50;42.20
80254;DHT22;69563;37.974;23.708;2023-09-18T07:53:21;28.50;42.20
80254;DHT22;69563;37.974;23.708;2023-09-18T07:55:56;28.50;42.20
80254;DHT22;69563;37.974;23.708;2023-09-18T07:58:22;28.50;42.10
80254;DHT22;69563;37.974;23.708;2023-09-18T08:00:49;28.50;42.00
80254;DHT22;69563;37.974;23.708;2023-09-18T08:03:19;28.50;42.00
80254;DHT22;69563;37.974;23.708;2023-09-18T08:05:45;28.50;42.10
80254;DHT22;69563;37.974;23.708;2023-09-18T08:08:13;28.50;42.10
80254;DHT22;69563;37.974;23.708;2023-09-18T08:10:38;28.50;42.10
80254;DHT22;69563;37.974;23.708;2023-09-18T08:13:04;28.50;42.10
80254;DHT22;69563;37.974;23.708;2023-09-18T08:15:30;28.50;43.10
80254;DHT22;69563;37.974;23.708;2023-09-18T08:17:55;28.40;42.10
80254;DHT22;69563;37.974;23.708;2023-09-18T08:20:21;28.40;42.70
80254;DHT22;69563;37.974;23.708;2023-09-18T08:22:47;28.40;42.10
80254;DHT22;69563;37.974;23.708;2023-09-18T08:25:13;28.40;42.10
80254;DHT22;69563;37.974;23.708;2023-09-18T08:27:40;28.40;42.20
80254;DHT22;69563;37.974;23.708;2023-09-18T08:30:13;28.30;42.20
80254;DHT22;69563;37.974;23.708;2023-09-18T08:32:41;28.40;42.20
80254;DHT22;69563;37.974;23.708;2023-09-18T08:35:08;28.40;42.20
80254;DHT22;69563;37.974;23.708;2023-09-18T08:37:34;28.40;42.20
80254;DHT22;69563;37.974;23.708;2023-09-18T08:40:00;28.40;42.10
80254;DHT22;69563;37.974;23.708;2023-09-18T08:42:29;28.40;42.00
80254;DHT22;69563;37.974;23.708;2023-09-18T08:44:57;28.50;42.00
80254;DHT22;69563;37.974;23.708;2023-09-18T08:47:24;28.40;42.00
80254;DHT22;69563;37.974;23.708;2023-09-18T08:49:51;28.50;42.00
80254;DHT22;69563;37.974;23.708;2023-09-18T08:52:18;28.40;41.80
80254;DHT22;69563;37.974;23.708;2023-09-18T08:54:46;28.50;41.80
80254;DHT22;69563;37.974;23.708;2023-09-18T08:57:12;28.50;41.70
80254;DHT22;69563;37.974;23.708;2023-09-18T08:59:39;28.50;41.60
80254;DHT22;69563;37.974;23.708;2023-09-18T09:02:07;28.50;41.50
80254;DHT22;69563;37.974;23.708;2023-09-18T09:04:35;28.40;41.40
80254;DHT22;69563;37.974;23.708;2023-09-18T09:07:02;28.40;41.20
80254;DHT22;69563;37.974;23.708;2023-09-18T09:09:28;28.40;41.10
80254;DHT22;69563;37.974;23.708;2023-09-18T09:11:56;28.30;40.90
80254;DHT22;69563;37.974;23.708;2023-09-18T09:14:22;28.40;40.80
80254;DHT22;69563;37.974;23.708;2023-09-18T09:16:54;28.30;40.70
80254;DHT22;69563;37.974;23.708;2023-09-18T09:19:34;28.40;40.70
80254;DHT22;69563;37.974;23.708;2023-09-18T09:22:04;28.40;40.60
80254;DHT22;69563;37.974;23.708;2023-09-18T09:24:41;28.40;40.70
80254;DHT22;69563;37.974;23.708;2023-09-18T09:27:09;28.40;40.60
80254;DHT22;69563;37.974;23.708;2023-09-18T09:29:35;28.40;40.50
80254;DHT22;69563;37.974;23.708;2023-09-18T09:34:41;28.50;40.40
80254;DHT22;69563;37.974;23.708;2023-09-18T09:37:07;28.40;40.30
80254;DHT22;69563;37.974;23.708;2023-09-18T09:39:33;28.40;40.30
80254;DHT22;69563;37.974;23.708;2023-09-18T09:42:03;28.40;40.30
80254;DHT22;69563;37.974;23.708;2023-09-18T09:44:32;28.40;40.40
80254;DHT22;69563;37.974;23.708;2023-09-18T09:46:59;28.40;40.50
80254;DHT22;69563;37.974;23.708;2023-09-18T09:49:25;28.40;40.60
80254;DHT22;69563;37.974;23.708;2023-09-18T09:51:59;28.30;40.60
80254;DHT22;69563;37.974;23.708;2023-09-18T09:54:34;28.30;40.50
80254;DHT22;69563;37.974;23.708;2023-09-18T09:57:02;28.30;40.50
80254;DHT22;69563;37.974;23.708;2023-09-18T09:59:28;28.30;40.60
80254;DHT22;69563;37.974;23.708;2023-09-18T10:01:56;28.30;40.70
80254;DHT22;69563;37.974;23.708;2023-09-18T10:04:27;28.30;40.70
80254;DHT22;69563;37.974;23.708;2023-09-18T10:07:00;28.30;40.80
80254;DHT22;69563;37.974;23.708;2023-09-18T10:09:31;28.40;41.10
80254;DHT22;69563;37.974;23.708;2023-09-18T10:12:00;28.30;41.20
80254;DHT22;69563;37.974;23.708;2023-09-18T10:14:30;28.30;41.30
80254;DHT22;69563;37.974;23.708;2023-09-18T10:17:00;28.30;41.70
80254;DHT22;69563;37.974;23.708;2023-09-18T10:19:54;28.30;41.70
80254;DHT22;69563;37.974;23.708;2023-09-18T10:22:36;28.20;41.50
80254;DHT22;69563;37.974;23.708;2023-09-18T10:25:18;28.20;41.50
80254;DHT22;69563;37.974;23.708;2023-09-18T10:27:51;28.30;41.40
80254;DHT22;69563;37.974;23.708;2023-09-18T10:30:19;28.30;41.40
80254;DHT22;69563;37.974;23.708;2023-09-18T10:32:48;28.20;41.50
80254;DHT22;69563;37.974;23.708;2023-09-18T10:35:15;28.20;41.60
80254;DHT22;69563;37.974;23.708;2023-09-18T10:37:46;28.20;41.40
80254;DHT22;69563;37.974;23.708;2023-09-18T10:40:12;28.30;41.20
80254;DHT22;69563;37.974;23.708;2023-09-18T10:42:41;28.20;41.20
80254;DHT22;69563;37.974;23.708;2023-09-18T10:45:10;28.20;41.10
80254;DHT22;69563;37.974;23.708;2023-09-18T10:47:40;28.20;41.00
80254;DHT22;69563;37.974;23.708;2023-09-18T10:50:08;28.30;41.00
80254;DHT22;69563;37.974;23.708;2023-09-18T10:52:36;28.30;41.00
80254;DHT22;69563;37.974;23.708;2023-09-18T10:55:02;28.30;40.80
80254;DHT22;69563;37.974;23.708;2023-09-18T10:57:37;28.30;40.80
80254;DHT22;69563;37.974;23.708;2023-09-18T11:00:04;28.40;40.90
80254;DHT22;69563;37.974;23.708;2023-09-18T11:02:40;28.40;40.60
80254;DHT22;69563;37.974;23.708;2023-09-18T11:05:06;28.20;40.30
80254;DHT22;69563;37.974;23.708;2023-09-18T11:07:32;28.20;40.40
80254;DHT22;69563;37.974;23.708;2023-09-18T11:09:58;28.10;40.30
80254;DHT22;69563;37.974;23.708;2023-09-18T11:12:43;28.20;40.40
80254;DHT22;69563;37.974;23.708;2023-09-18T11:15:25;28.20;40.30
80254;DHT22;69563;37.974;23.708;2023-09-18T11:18:01;28.20;40.00
80254;DHT22;69563;37.974;23.708;2023-09-18T11:20:31;28.10;39.80
80254;DHT22;69563;37.974;23.708;2023-09-18T11:25:39;28.10;39.40
80254;DHT22;69563;37.974;23.708;2023-09-18T11:28:13;28.20;39.30
80254;DHT22;69563;37.974;23.708;2023-09-18T11:30:51;28.20;39.30
80254;DHT22;69563;37.974;23.708;2023-09-18T11:33:40;28.10;39.40
80254;DHT22;69563;37.974;23.708;2023-09-18T11:36:08;28.10;39.30
80254;DHT22;69563;37.974;23.708;2023-09-18T11:38:57;28.10;39.30
80254;DHT22;69563;37.974;23.708;2023-09-18T11:41:25;28.20;39.20
80254;DHT22;69563;37.974;23.708;2023-09-18T11:43:51;28.20;39.10
80254;DHT22;69563;37.974;23.708;2023-09-18T11:46:19;28.20;39.00
80254;DHT22;69563;37.974;23.708;2023-09-18T11:48:47;28.20;39.00
80254;DHT22;69563;37.974;23.708;2023-09-18T11:51:21;28.30;39.00
80254;DHT22;69563;37.974;23.708;2023-09-18T11:53:50;28.20;38.80
80254;DHT22;69563;37.974;23.708;2023-09-18T11:56:17;28.30;38.80
80254;DHT22;69563;37.974;23.708;2023-09-18T11:58:48;28.30;38.90
80254;DHT22;69563;37.974;23.708;2023-09-18T12:01:14;28.20;38.90
80254;DHT22;69563;37.974;23.708;2023-09-18T12:03:43;28.20;39.00
80254;DHT22;69563;37.974;23.708;2023-09-18T12:06:10;28.20;39.00
80254;DHT22;69563;37.974;23.708;2023-09-18T12:08:39;28.20;39.00
80254;DHT22;69563;37.974;23.708;2023-09-18T12:11:07;28.20;38.90
80254;DHT22;69563;37.974;23.708;2023-09-18T12:13:33;28.20;38.90
80254;DHT22;69563;37.974;23.708;2023-09-18T12:16:03;28.30;38.90
80254;DHT22;69563;37.974;23.708;2023-09-18T12:18:32;28.20;38.80
80254;DHT22;69563;37.974;23.708;2023-09-18T12:21:02;28.20;38.80
80254;DHT22;69563;37.974;23.708;2023-09-18T12:23:39;28.20;38.70
80254;DHT22;69563;37.974;23.708;2023-09-18T12:26:05;28.20;38.60
80254;DHT22;69563;37.974;23.708;2023-09-18T12:28:37;28.20;38.80
80254;DHT22;69563;37.974;23.708;2023-09-18T12:31:03;28.20;38.60
80254;DHT22;69563;37.974;23.708;2023-09-18T12:33:36;28.20;38.60
80254;DHT22;69563;37.974;23.708;2023-09-18T12:36:06;28.10;38.40
80254;DHT22;69563;37.974;23.708;2023-09-18T12:38:32;28.10;38.30
80254;DHT22;69563;37.974;23.708;2023-09-18T12:40:59;28.20;38.30
80254;DHT22;69563;37.974;23.708;2023-09-18T12:43:41;28.10;38.30
80254;DHT22;69563;37.974;23.708;2023-09-18T12:46:08;28.20;38.40
80254;DHT22;69563;37.974;23.708;2023-09-18T12:48:38;28.20;38.30
80254;DHT22;69563;37.974;23.708;2023-09-18T12:51:07;28.20;38.30
80254;DHT22;69563;37.974;23.708;2023-09-18T12:53:34;28.20;38.30
80254;DHT22;69563;37.974;23.708;2023-09-18T12:56:13;28.20;38.20
80254;DHT22;69563;37.974;23.708;2023-09-18T12:58:40;28.10;38.10
80254;DHT22;69563;37.974;23.708;2023-09-18T13:01:08;28.20;38.10
80254;DHT22;69563;37.974;23.708;2023-09-18T13:03:44;28.20;38.20
80254;DHT22;69563;37.974;23.708;2023-09-18T13:06:18;28.20;38.10
80254;DHT22;69563;37.974;23.708;2023-09-18T13:08:44;28.20;38.20
80254;DHT22;69563;37.974;23.708;2023-09-18T13:11:10;28.20;38.30
80254;DHT22;69563;37.974;23.708;2023-09-18T13:13:37;28.20;38.30
80254;DHT22;69563;37.974;23.708;2023-09-18T13:16:10;28.10;38.50
80254;DHT22;69563;37.974;23.708;2023-09-18T13:18:36;28.00;38.60
80254;DHT22;69563;37.974;23.708;2023-09-18T13:21:12;28.00;38.80
80254;DHT22;69563;37.974;23.708;2023-09-18T13:23:38;28.00;38.80
80254;DHT22;69563;37.974;23.708;2023-09-18T13:26:05;28.00;38.90
80254;DHT22;69563;37.974;23.708;2023-09-18T13:28:31;28.00;38.90
80254;DHT22;69563;37.974;23.708;2023-09-18T13:30:59;27.90;38.80
80254;DHT22;69563;37.974;23.708;2023-09-18T13:33:25;27.90;38.80
80254;DHT22;69563;37.974;23.708;2023-09-18T13:35:52;27.90;38.80
80254;DHT22;69563;37.974;23.708;2023-09-18T13:38:19;28.00;38.80
80254;DHT22;69563;37.974;23.708;2023-09-18T13:40:47;28.00;38.80
80254;DHT22;69563;37.974;23.708;2023-09-18T13:43:14;28.10;38.80
80254;DHT22;69563;37.974;23.708;2023-09-18T13:45:41;28.10;39.80
80254;DHT22;69563;37.974;23.708;2023-09-18T13:48:07;28.10;38.80
80254;DHT22;69563;37.974;23.708;2023-09-18T13:50:34;28.00;38.80
80254;DHT22;69563;37.974;23.708;2023-09-18T13:53:01;27.90;38.90
80254;DHT22;69563;37.974;23.708;2023-09-18T13:55:27;27.90;38.80
80254;DHT22;69563;37.974;23.708;2023-09-18T13:57:52;27.90;38.80
80254;DHT22;69563;37.974;23.708;2023-09-18T14:00:18;27.90;38.60
80254;DHT22;69563;37.974;23.708;2023-09-18T14:02:44;28.00;38.60
80254;DHT22;69563;37.974;23.708;2023-09-18T14:05:10;27.90;38.50
80254;DHT22;69563;37.974;23.708;2023-09-18T14:07:37;27.90;38.50
80254;DHT22;69563;37.974;23.708;2023-09-18T14:10:10;27.90;38.40
80254;DHT22;69563;37.974;23.708;2023-09-18T14:12:37;27.90;38.30
80254;DHT22;69563;37.974;23.708;2023-09-18T14:15:05;27.90;38.30
80254;DHT22;69563;37.974;23.708;2023-09-18T14:17:31;27.90;38.10
80254;DHT22;69563;37.974;23.708;2023-09-18T14:19:57;27.80;38.00
80254;DHT22;69563;37.974;23.708;2023-09-18T14:22:24;27.90;38.00
80254;DHT22;69563;37.974;23.708;2023-09-18T14:24:50;27.90;37.90
80254;DHT22;69563;37.974;23.708;2023-09-18T14:27:16;27.80;37.70
80254;DHT22;69563;37.974;23.708;2023-09-18T14:29:42;27.80;37.70
80254;DHT22;69563;37.974;23.708;2023-09-18T14:32:07;27.80;37.70
80254;DHT22;69563;37.974;23.708;2023-09-18T14:34:34;27.70;37.60
80254;DHT22;69563;37.974;23.708;2023-09-18T14:37:03;27.70;37.60
80254;DHT22;69563;37.974;23.708;2023-09-18T14:39:31;27.70;38.60
80254;DHT22;69563;37.974;23.708;2023-09-18T14:41:56;27.70;37.60
80254;DHT22;69563;37.974;23.708;2023-09-18T14:44:22;27.70;37.70
80254;DHT22;69563;37.974;23.708;2023-09-18T14:46:48;27.70;37.70
80254;DHT22;69563;37.974;23.708;2023-09-18T14:49:14;27.70;37.70
80254;DHT22;69563;37.974;23.708;2023-09-18T14:51:40;27.70;37.70
80254;DHT22;69563;37.974;23.708;2023-09-18T14:54:06;27.70;37.60
80254;DHT22;69563;37.974;23.708;2023-09-18T14:56:33;27.70;37.50
80254;DHT22;69563;37.974;23.708;2023-09-18T14:59:02;27.70;37.40
80254;DHT22;69563;37.974;23.708;2023-09-18T15:01:27;27.70;37.40
80254;DHT22;69563;37.974;23.708;2023-09-18T15:03:53;27.70;37.20
80254;DHT22;69563;37.974;23.708;2023-09-18T15:06:20;27.70;37.20
80254;DHT22;69563;37.974;23.708;2023-09-18T15:08:46;27.70;37.00
80254;DHT22;69563;37.974;23.708;2023-09-18T15:11:13;27.70;37.00
80254;DHT22;69563;37.974;23.708;2023-09-18T15:13:42;27.60;37.00
80254;DHT22;69563;37.974;23.708;2023-09-18T15:16:08;27.60;37.00
80254;DHT22;69563;37.974;23.708;2023-09-18T15:18:34;27.60;36.90
80254;DHT22;69563;37.974;23.708;2023-09-18T15:21:01;27.60;36.90
80254;DHT22;69563;37.974;23.708;2023-09-18T15:23:27;27.60;36.80
80254;DHT22;69563;37.974;23.708;2023-09-18T15:25:55;27.60;36.80